createdAt,value
2018-05-15T00:00:22.651Z,52.50
2018-05-15T00:02:51.193Z,52.60
2018-05-15T00:05:19.017Z,52.60
2018-05-15T00:07:46.939Z,52.70
2018-05-15T00:10:15.430Z,52.60
2018-05-15T00:12:43.235Z,52.60
2018-05-15T00:15:12.790Z,52.60
2018-05-15T00:17:40.657Z,52.60
2018-05-15T00:20:08.621Z,53.20
2018-05-15T00:22:36.395Z,52.50
2018-05-15T00:25:04.353Z,52.60
2018-05-15T00:27:32.217Z,52.50
2018-05-15T00:30:00.185Z,52.60
2018-05-15T00:32:28.046Z,52.50
2018-05-15T00:34:55.815Z,52.50
2018-05-15T00:37:23.679Z,52.50
2018-05-15T00:39:51.546Z,52.50
2018-05-15T00:42:19.179Z,52.50
2018-05-15T00:44:46.868Z,52.50
2018-05-15T00:47:14.628Z,52.50
2018-05-15T00:49:42.214Z,52.50
2018-05-15T00:52:09.740Z,52.70
2018-05-15T00:54:37.238Z,52.70
2018-05-15T00:57:04.771Z,52.60
2018-05-15T00:59:32.268Z,52.60
2018-05-15T01:02:00.558Z,53.20
2018-05-15T01:04:28.851Z,53.00
2018-05-15T01:06:56.450Z,53.00
2018-05-15T01:09:24.035Z,53.00
2018-05-15T01:11:51.564Z,53.20
2018-05-15T01:14:19.084Z,53.20
2018-05-15T01:16:46.607Z,53.50
2018-05-15T01:19:14.148Z,53.50
2018-05-15T01:21:41.681Z,53.50
2018-05-15T01:24:09.186Z,53.50
2018-05-15T01:26:37.520Z,53.80
2018-05-15T01:29:05.066Z,53.80
2018-05-15T01:31:32.684Z,53.70
2018-05-15T01:34:00.948Z,53.80
2018-05-15T01:36:29.254Z,54.50
2018-05-15T01:38:56.763Z,53.80
2018-05-15T01:41:24.301Z,53.90
2018-05-15T01:43:51.825Z,53.80
2018-05-15T01:46:19.330Z,53.80
2018-05-15T01:48:46.868Z,53.90
2018-05-15T01:51:14.375Z,53.90
2018-05-15T01:53:41.911Z,54.00
2018-05-15T01:56:09.414Z,53.90
2018-05-15T01:58:36.908Z,53.90
2018-05-15T02:01:04.434Z,54.00
2018-05-15T02:03:31.942Z,54.00
2018-05-15T02:05:59.467Z,54.00
2018-05-15T02:08:26.979Z,54.00
2018-05-15T02:10:57.232Z,54.10
2018-05-15T02:13:24.739Z,54.00
2018-05-15T02:15:52.272Z,54.10
2018-05-15T02:18:20.725Z,54.00
2018-05-15T02:20:48.227Z,54.00
2018-05-15T02:23:16.527Z,54.10
2018-05-15T02:25:44.835Z,54.10
2018-05-15T02:28:12.383Z,54.10
2018-05-15T02:30:39.888Z,54.00
2018-05-15T02:33:07.424Z,54.20
2018-05-15T02:35:34.921Z,54.10
2018-05-15T02:38:03.285Z,53.70
2018-05-15T02:40:30.884Z,54.20
2018-05-15T02:42:58.403Z,54.10
2018-05-15T02:45:25.943Z,54.10
2018-05-15T02:47:53.459Z,54.20
2018-05-15T02:50:20.999Z,54.20
2018-05-15T02:52:49.259Z,54.20
2018-05-15T02:55:17.537Z,54.30
2018-05-15T02:57:45.848Z,54.80
2018-05-15T03:00:13.356Z,54.20
2018-05-15T03:02:40.887Z,54.30
2018-05-15T03:05:08.425Z,54.30
2018-05-15T03:07:35.932Z,54.30
2018-05-15T03:10:03.464Z,54.20
2018-05-15T03:12:30.960Z,54.30
2018-05-15T03:14:59.250Z,54.30
2018-05-15T03:17:26.769Z,54.30
2018-05-15T03:19:56.248Z,54.40
2018-05-15T03:22:23.758Z,54.40
2018-05-15T03:24:52.053Z,54.40
2018-05-15T03:27:19.755Z,54.40
2018-05-15T03:29:47.267Z,54.40
2018-05-15T03:32:14.791Z,54.40
2018-05-15T03:34:42.286Z,54.50
2018-05-15T03:37:09.807Z,54.40
2018-05-15T03:39:38.818Z,54.30
2018-05-15T03:42:07.201Z,54.40
2018-05-15T03:44:34.728Z,54.30
2018-05-15T03:47:02.379Z,54.40
2018-05-15T03:49:30.884Z,54.40
2018-05-15T03:51:59.166Z,54.40
2018-05-15T03:54:26.703Z,54.40
2018-05-15T03:56:55.717Z,54.40
2018-05-15T03:59:24.010Z,54.40
2018-05-15T04:02:03.502Z,54.40
2018-05-15T04:04:42.919Z,54.40
2018-05-15T04:07:22.284Z,54.40
2018-05-15T04:09:49.858Z,54.40
2018-05-15T04:12:18.164Z,54.60
2018-05-15T04:14:45.692Z,54.50
2018-05-15T04:17:14.045Z,54.50
2018-05-15T04:19:42.327Z,54.50
2018-05-15T04:22:11.361Z,54.50
2018-05-15T04:24:38.879Z,54.50
2018-05-15T04:27:07.168Z,54.60
2018-05-15T04:29:35.456Z,54.60
2018-05-15T04:32:03.034Z,54.50
2018-05-15T04:34:30.534Z,54.50
2018-05-15T04:37:00.018Z,54.50
2018-05-15T04:39:27.523Z,54.50
2018-05-15T04:41:55.799Z,54.60
2018-05-15T04:44:24.087Z,54.50
2018-05-15T04:46:52.564Z,54.50
2018-05-15T04:49:20.141Z,54.50
2018-05-15T04:51:48.368Z,54.50
2018-05-15T04:54:16.660Z,54.50
2018-05-15T04:56:44.943Z,54.40
2018-05-15T04:59:13.211Z,54.40
2018-05-15T05:01:41.504Z,54.40
2018-05-15T05:04:09.006Z,54.40
2018-05-15T05:06:36.539Z,54.40
2018-05-15T05:09:04.047Z,54.40
2018-05-15T05:11:31.602Z,54.50
2018-05-15T05:13:59.304Z,54.50
2018-05-15T05:16:26.811Z,54.40
2018-05-15T05:18:54.395Z,54.30
2018-05-15T05:21:23.615Z,54.40
2018-05-15T05:23:51.135Z,54.40
2018-05-15T05:26:18.633Z,54.10
2018-05-15T05:28:46.158Z,54.30
2018-05-15T05:31:14.433Z,54.20
2018-05-15T05:33:43.220Z,54.20
2018-05-15T05:36:11.612Z,54.00
2018-05-15T05:38:40.100Z,54.00
2018-05-15T05:41:07.679Z,54.10
2018-05-15T05:43:35.177Z,53.90
2018-05-15T05:46:03.507Z,54.60
2018-05-15T05:48:31.002Z,54.00
2018-05-15T05:50:59.478Z,54.00
2018-05-15T05:53:27.111Z,53.90
2018-05-15T05:55:54.671Z,54.00
2018-05-15T05:58:22.219Z,54.10
2018-05-15T06:00:49.730Z,54.00
2018-05-15T06:03:18.026Z,54.20
2018-05-15T06:05:45.524Z,54.10
2018-05-15T06:08:13.020Z,53.90
2018-05-15T06:10:41.315Z,54.20
2018-05-15T06:13:08.814Z,54.20
2018-05-15T06:15:36.658Z,54.50
2018-05-15T06:18:04.406Z,54.10
2018-05-15T06:20:32.286Z,54.00
2018-05-15T06:23:00.061Z,54.00
2018-05-15T06:25:27.915Z,54.00
2018-05-15T06:27:55.779Z,54.10
2018-05-15T06:30:25.182Z,54.50
2018-05-15T06:32:52.836Z,54.50
2018-05-15T06:35:21.529Z,54.90
2018-05-15T06:37:49.392Z,54.60
2018-05-15T06:40:17.257Z,54.20
2018-05-15T06:42:45.123Z,54.20
2018-05-15T06:45:12.988Z,54.10
2018-05-15T06:47:40.751Z,54.20
2018-05-15T06:50:08.616Z,54.10
2018-05-15T06:52:36.687Z,54.20
2018-05-15T06:55:04.448Z,54.20
2018-05-15T06:57:32.317Z,54.10
2018-05-15T07:00:00.183Z,54.20
2018-05-15T07:02:28.044Z,54.10
2018-05-15T07:04:55.670Z,54.00
2018-05-15T07:07:24.898Z,54.10
2018-05-15T07:09:52.440Z,54.10
2018-05-15T07:12:21.109Z,54.00
2018-05-15T07:14:49.387Z,54.00
2018-05-15T07:17:17.677Z,54.00
2018-05-15T07:19:45.190Z,54.00
2018-05-15T07:22:12.715Z,53.90
2018-05-15T07:24:41.182Z,53.80
2018-05-15T07:27:08.748Z,53.80
2018-05-15T07:29:36.264Z,53.80
2018-05-15T07:32:04.573Z,53.80
2018-05-15T07:34:32.076Z,53.80
2018-05-15T07:36:59.583Z,53.80
2018-05-15T07:39:27.107Z,53.70
2018-05-15T07:41:55.414Z,53.70
2018-05-15T07:44:22.931Z,53.70
2018-05-15T07:46:52.397Z,53.70
2018-05-15T07:49:19.902Z,53.60
2018-05-15T07:51:49.143Z,53.50
2018-05-15T07:54:16.660Z,53.50
2018-05-15T07:56:44.940Z,53.40
2018-05-15T07:59:13.251Z,53.40
2018-05-15T08:01:40.743Z,53.40
2018-05-15T08:04:08.271Z,53.30
2018-05-15T08:06:35.765Z,53.20
2018-05-15T08:09:03.265Z,53.20
2018-05-15T08:11:30.791Z,53.20
2018-05-15T08:13:59.083Z,53.90
2018-05-15T08:16:26.665Z,53.20
2018-05-15T08:18:54.155Z,53.10
2018-05-15T08:21:21.679Z,53.20
2018-05-15T08:23:49.227Z,53.20
2018-05-15T08:26:16.727Z,53.10
2018-05-15T08:28:44.243Z,53.20
2018-05-15T08:31:12.694Z,53.20
2018-05-15T08:33:42.952Z,53.20
2018-05-15T08:36:10.460Z,53.10
2018-05-15T08:38:38.746Z,53.00
2018-05-15T08:41:07.016Z,53.00
2018-05-15T08:43:34.512Z,53.00
2018-05-15T08:46:02.032Z,53.10
2018-05-15T08:48:30.310Z,53.10
2018-05-15T08:51:00.575Z,53.10
2018-05-15T08:53:28.725Z,53.10
2018-05-15T08:55:56.248Z,53.00
2018-05-15T08:58:23.749Z,52.90
2018-05-15T09:00:51.287Z,53.10
2018-05-15T09:03:19.555Z,53.00
2018-05-15T09:05:47.831Z,53.00
2018-05-15T09:08:16.119Z,52.90
2018-05-15T09:10:43.620Z,52.90
2018-05-15T09:13:11.166Z,52.90
2018-05-15T09:15:39.611Z,52.90
2018-05-15T09:18:07.132Z,52.90
2018-05-15T09:20:34.643Z,52.90
2018-05-15T09:23:02.180Z,52.80
2018-05-15T09:25:29.706Z,52.90
2018-05-15T09:27:57.228Z,52.90
2018-05-15T09:30:24.739Z,52.90
2018-05-15T09:32:52.262Z,52.90
2018-05-15T09:35:21.740Z,52.90
2018-05-15T09:37:49.292Z,52.80
2018-05-15T09:40:16.799Z,52.80
2018-05-15T09:42:45.813Z,52.80
2018-05-15T09:45:14.105Z,52.90
2018-05-15T09:47:41.603Z,52.80
2018-05-15T09:50:09.140Z,52.90
2018-05-15T09:52:37.579Z,53.50
2018-05-15T09:55:05.871Z,52.80
2018-05-15T09:57:33.403Z,52.80
2018-05-15T10:00:01.700Z,52.80
2018-05-15T10:02:29.190Z,52.70
2018-05-15T10:04:56.692Z,52.80
2018-05-15T10:07:24.971Z,52.80
2018-05-15T10:09:53.251Z,52.80
2018-05-15T10:12:21.535Z,52.70
2018-05-15T10:14:49.796Z,52.80
2018-05-15T10:17:18.081Z,52.80
2018-05-15T10:19:46.343Z,52.80
2018-05-15T10:22:14.621Z,52.80
2018-05-15T10:24:42.900Z,52.80
2018-05-15T10:27:11.187Z,53.50
2018-05-15T10:29:40.721Z,52.70
2018-05-15T10:32:08.214Z,52.80
2018-05-15T10:34:35.737Z,52.70
2018-05-15T10:37:03.244Z,52.70
2018-05-15T10:39:31.527Z,52.80
2018-05-15T10:41:59.892Z,52.80
2018-05-15T10:44:27.313Z,52.70
2018-05-15T10:46:54.847Z,52.70
2018-05-15T10:49:22.344Z,52.70
2018-05-15T10:51:49.879Z,52.70
2018-05-15T10:54:17.382Z,52.70
2018-05-15T10:56:45.667Z,52.70
2018-05-15T10:59:13.926Z,52.70
2018-05-15T11:01:41.428Z,52.70
2018-05-15T11:04:08.950Z,52.70
2018-05-15T11:06:37.210Z,52.60
2018-05-15T11:09:06.236Z,52.60
2018-05-15T11:11:34.682Z,52.60
2018-05-15T11:14:02.962Z,52.60
2018-05-15T11:16:31.222Z,52.60
2018-05-15T11:19:12.182Z,52.60
2018-05-15T11:21:51.652Z,52.50
2018-05-15T11:24:31.841Z,52.60
2018-05-15T11:27:00.078Z,52.60
2018-05-15T11:29:29.290Z,52.60
2018-05-15T11:31:56.819Z,52.60
2018-05-15T11:34:25.823Z,52.60
2018-05-15T11:36:54.112Z,53.10
2018-05-15T11:39:21.619Z,52.50
2018-05-15T11:41:49.238Z,52.50
2018-05-15T11:44:16.693Z,52.50
2018-05-15T11:46:44.219Z,52.50
2018-05-15T11:49:12.377Z,52.50
2018-05-15T11:51:39.690Z,52.50
2018-05-15T11:54:09.488Z,52.40
2018-05-15T11:56:37.010Z,52.40
2018-05-15T11:59:04.508Z,52.40
2018-05-15T12:01:32.003Z,52.40
2018-05-15T12:03:59.550Z,52.40
2018-05-15T12:06:27.063Z,52.40
2018-05-15T12:08:56.582Z,52.40
2018-05-15T12:11:24.080Z,52.40
2018-05-15T12:13:53.557Z,52.40
2018-05-15T12:16:21.051Z,52.30
2018-05-15T12:18:48.552Z,52.30
2018-05-15T12:21:16.071Z,52.40
2018-05-15T12:23:45.100Z,52.40
2018-05-15T12:26:12.611Z,52.40
2018-05-15T12:28:40.122Z,52.40
2018-05-15T12:31:07.652Z,52.40
2018-05-15T12:33:35.944Z,52.40
2018-05-15T12:36:04.404Z,52.40
2018-05-15T12:38:33.601Z,52.40
2018-05-15T12:41:01.871Z,52.30
2018-05-15T12:43:30.162Z,52.40
2018-05-15T12:45:58.435Z,52.30
2018-05-15T12:48:25.980Z,52.30
2018-05-15T12:50:54.263Z,52.30
2018-05-15T12:53:22.551Z,52.90
2018-05-15T12:55:50.068Z,52.30
2018-05-15T12:58:17.570Z,52.40
2018-05-15T13:00:45.091Z,52.30
2018-05-15T13:03:13.359Z,52.30
2018-05-15T13:05:40.872Z,52.30
2018-05-15T13:08:08.388Z,52.30
2018-05-15T13:10:37.607Z,52.30
2018-05-15T13:13:05.130Z,52.30
2018-05-15T13:15:34.143Z,52.40
2018-05-15T13:18:02.439Z,52.30
2018-05-15T13:20:29.931Z,52.30
2018-05-15T13:22:59.419Z,52.30
2018-05-15T13:25:26.916Z,52.30
2018-05-15T13:27:54.422Z,52.30
2018-05-15T13:30:23.913Z,52.30
2018-05-15T13:32:51.424Z,52.30
2018-05-15T13:35:18.970Z,52.30
2018-05-15T13:37:46.497Z,52.30
2018-05-15T13:40:14.011Z,52.30
2018-05-15T13:42:42.271Z,53.00
2018-05-15T13:45:09.790Z,52.40
2018-05-15T13:47:38.251Z,52.30
2018-05-15T13:50:05.758Z,52.30
2018-05-15T13:52:33.284Z,52.30
2018-05-15T13:55:00.785Z,52.20
2018-05-15T13:57:29.077Z,52.30
2018-05-15T13:59:57.343Z,52.30
2018-05-15T14:02:27.583Z,52.30
2018-05-15T14:04:55.847Z,52.20
2018-05-15T14:07:24.131Z,52.20
2018-05-15T14:09:52.395Z,52.20
2018-05-15T14:12:21.664Z,52.20
2018-05-15T14:14:49.156Z,52.10
2018-05-15T14:17:18.364Z,52.30
2018-05-15T14:19:47.875Z,52.10
2018-05-15T14:22:15.367Z,52.20
2018-05-15T14:24:42.971Z,52.20
2018-05-15T14:27:10.391Z,52.20
2018-05-15T14:29:37.913Z,52.20
2018-05-15T14:32:05.415Z,52.10
2018-05-15T14:34:32.936Z,52.20
2018-05-15T14:37:00.438Z,52.20
2018-05-15T14:39:28.705Z,52.20
2018-05-15T14:42:08.164Z,52.20
2018-05-15T14:44:36.439Z,52.10
2018-05-15T14:47:04.719Z,52.20
2018-05-15T14:49:32.980Z,52.20
2018-05-15T14:52:00.506Z,52.10
2018-05-15T14:54:27.999Z,52.10
2018-05-15T14:56:56.284Z,52.20
2018-05-15T14:59:24.550Z,52.10
2018-05-15T15:01:52.819Z,52.10
2018-05-15T15:04:20.336Z,52.00
2018-05-15T15:06:47.848Z,52.10
2018-05-15T15:09:16.196Z,52.10
2018-05-15T15:11:43.700Z,52.10
2018-05-15T15:14:11.237Z,52.10
2018-05-15T15:16:39.499Z,52.10
2018-05-15T15:19:07.008Z,52.10
2018-05-15T15:21:34.529Z,52.10
2018-05-15T15:24:02.799Z,52.10
2018-05-15T15:26:31.091Z,52.10
2018-05-15T15:28:58.588Z,52.10
2018-05-15T15:31:26.116Z,52.10
2018-05-15T15:33:53.608Z,52.10
2018-05-15T15:36:21.112Z,52.10
2018-05-15T15:38:48.631Z,52.10
2018-05-15T15:41:17.081Z,52.10
2018-05-15T15:43:44.600Z,52.10
2018-05-15T15:46:12.102Z,52.00
2018-05-15T15:48:39.624Z,52.10
2018-05-15T15:51:07.135Z,52.10
2018-05-15T15:53:35.573Z,52.10
2018-05-15T15:56:03.096Z,52.00
2018-05-15T15:58:31.359Z,52.10
2018-05-15T16:00:59.647Z,52.00
2018-05-15T16:03:27.922Z,52.00
2018-05-15T16:05:56.216Z,52.00
2018-05-15T16:08:23.712Z,52.00
2018-05-15T16:10:51.203Z,52.00
2018-05-15T16:13:18.719Z,52.00
2018-05-15T16:15:46.219Z,52.10
2018-05-15T16:18:13.736Z,52.00
2018-05-15T16:20:41.242Z,52.00
2018-05-15T16:23:09.532Z,52.00
2018-05-15T16:25:38.016Z,52.00
2018-05-15T16:28:05.588Z,52.00
2018-05-15T16:30:33.087Z,52.00
2018-05-15T16:33:00.588Z,52.00
2018-05-15T16:35:28.118Z,52.00
2018-05-15T16:37:55.629Z,52.00
2018-05-15T16:40:25.148Z,52.00
2018-05-15T16:42:52.686Z,52.00
2018-05-15T16:45:20.203Z,52.00
2018-05-15T16:47:48.489Z,52.10
2018-05-15T16:50:16.777Z,52.00
2018-05-15T16:52:44.279Z,52.00
2018-05-15T16:55:12.728Z,52.00
2018-05-15T16:57:40.246Z,52.00
2018-05-15T17:00:08.522Z,52.00
2018-05-15T17:02:36.070Z,52.00
2018-05-15T17:05:04.535Z,52.00
2018-05-15T17:07:32.059Z,52.00
2018-05-15T17:09:59.567Z,51.90
2018-05-15T17:12:27.855Z,52.00
2018-05-15T17:14:56.135Z,52.00
2018-05-15T17:17:23.644Z,52.00
2018-05-15T17:19:51.181Z,52.00
2018-05-15T17:22:20.682Z,52.00
2018-05-15T17:24:48.254Z,52.00
2018-05-15T17:27:15.751Z,52.00
2018-05-15T17:29:44.061Z,52.00
2018-05-15T17:32:11.631Z,52.00
2018-05-15T17:34:39.131Z,52.00
2018-05-15T17:37:07.422Z,52.00
2018-05-15T17:39:36.661Z,52.00
2018-05-15T17:42:04.187Z,52.00
2018-05-15T17:44:32.442Z,52.00
2018-05-15T17:46:59.966Z,52.00
2018-05-15T17:49:27.477Z,52.00
2018-05-15T17:51:55.735Z,52.00
2018-05-15T17:54:24.031Z,51.90
2018-05-15T17:56:51.535Z,52.60
2018-05-15T17:59:19.060Z,51.90
2018-05-15T18:01:46.560Z,51.90
2018-05-15T18:04:14.080Z,52.00
2018-05-15T18:06:41.580Z,51.90
2018-05-15T18:09:10.828Z,52.00
2018-05-15T18:11:39.292Z,52.00
2018-05-15T18:14:06.808Z,51.90
2018-05-15T18:16:34.332Z,52.00
2018-05-15T18:19:01.845Z,52.00
2018-05-15T18:21:30.196Z,52.00
2018-05-15T18:23:57.664Z,51.90
2018-05-15T18:26:28.059Z,52.00
2018-05-15T18:28:55.551Z,52.00
2018-05-15T18:31:23.056Z,51.90
2018-05-15T18:33:50.614Z,52.00
2018-05-15T18:36:18.135Z,52.00
2018-05-15T18:38:46.422Z,52.20
2018-05-15T18:41:14.687Z,52.20
2018-05-15T18:43:42.967Z,52.20
2018-05-15T18:46:11.246Z,52.20
2018-05-15T18:48:39.528Z,52.20
2018-05-15T18:51:07.283Z,52.10
2018-05-15T18:53:35.010Z,52.10
2018-05-15T18:56:03.552Z,52.90
2018-05-15T18:58:31.479Z,52.20
2018-05-15T19:00:59.870Z,52.20
2018-05-15T19:03:28.684Z,52.20
2018-05-15T19:05:57.259Z,52.20
2018-05-15T19:08:25.131Z,52.30
2018-05-15T19:10:53.918Z,52.20
2018-05-15T19:13:22.704Z,52.20
2018-05-15T19:15:50.403Z,52.30
2018-05-15T19:18:18.229Z,52.30
2018-05-15T19:20:46.100Z,52.30
2018-05-15T19:23:14.986Z,52.30
2018-05-15T19:25:42.544Z,52.30
2018-05-15T19:28:10.097Z,52.30
2018-05-15T19:30:37.602Z,52.40
2018-05-15T19:35:41.577Z,52.40
2018-05-15T19:38:09.085Z,52.40
2018-05-15T19:40:41.500Z,52.40
2018-05-15T19:43:09.004Z,52.40
2018-05-15T19:45:36.531Z,52.40
2018-05-15T19:48:04.958Z,52.40
2018-05-15T19:50:32.453Z,52.40
2018-05-15T19:52:59.980Z,52.50
2018-05-15T19:55:28.272Z,52.60
2018-05-15T19:57:56.564Z,52.40
2018-05-15T20:00:24.207Z,52.40
2018-05-15T20:02:51.867Z,52.40
2018-05-15T20:05:20.148Z,52.50
2018-05-15T20:07:47.928Z,52.40
2018-05-15T20:10:15.465Z,52.40
2018-05-15T20:12:43.014Z,52.40
2018-05-15T20:15:12.295Z,52.50
2018-05-15T20:17:39.811Z,52.40
2018-05-15T20:20:07.460Z,52.40
2018-05-15T20:22:34.976Z,52.40
2018-05-15T20:25:03.261Z,52.40
2018-05-15T20:27:31.524Z,52.40
2018-05-15T20:29:59.047Z,52.40
2018-05-15T20:32:26.555Z,52.40
2018-05-15T20:34:54.839Z,52.40
2018-05-15T20:37:22.376Z,52.40
2018-05-15T20:39:50.665Z,52.40
2018-05-15T20:42:18.214Z,52.40
2018-05-15T20:44:46.492Z,52.40
2018-05-15T20:47:14.784Z,52.40
2018-05-15T20:49:42.335Z,52.40
2018-05-15T20:52:09.893Z,52.40
2018-05-15T20:54:37.385Z,52.40
2018-05-15T20:57:05.237Z,52.40
2018-05-15T20:59:32.926Z,52.40
2018-05-15T21:02:00.653Z,52.40
2018-05-15T21:04:28.448Z,52.40
2018-05-15T21:06:57.721Z,52.40
2018-05-15T21:09:25.588Z,52.40
2018-05-15T21:11:53.348Z,52.40
2018-05-15T21:14:21.083Z,52.40
2018-05-15T21:16:49.623Z,52.40
2018-05-15T21:19:17.403Z,52.40
2018-05-15T21:21:45.845Z,52.00
2018-05-15T21:24:13.577Z,52.40
2018-05-15T21:26:41.258Z,52.40
2018-05-15T21:29:10.052Z,52.40
2018-05-15T21:31:37.910Z,52.40
2018-05-15T21:34:05.683Z,52.40
2018-05-15T21:36:33.338Z,52.50
2018-05-15T21:39:01.790Z,52.40
2018-05-15T21:41:29.316Z,52.40
2018-05-15T21:43:56.839Z,52.40
2018-05-15T21:46:24.358Z,52.40
2018-05-15T21:48:52.660Z,52.50
2018-05-15T21:51:20.238Z,52.50
2018-05-15T21:53:47.734Z,52.50
2018-05-15T21:56:17.385Z,52.50
2018-05-15T21:58:45.248Z,53.20
2018-05-15T22:01:12.912Z,52.50
2018-05-15T22:03:40.458Z,52.50
2018-05-15T22:06:07.997Z,52.50
2018-05-15T22:08:37.669Z,52.50
2018-05-15T22:11:13.896Z,52.40
2018-05-15T22:13:55.084Z,52.50
2018-05-15T22:16:36.404Z,52.50
2018-05-15T22:19:16.709Z,52.50
2018-05-15T22:21:56.459Z,52.50
2018-05-15T22:24:31.383Z,52.50
2018-05-15T22:26:59.282Z,52.50
2018-05-15T22:29:27.052Z,52.50
2018-05-15T22:31:54.622Z,52.50
2018-05-15T22:34:22.149Z,52.60
2018-05-15T22:36:49.658Z,52.50
2018-05-15T22:39:18.868Z,52.50
2018-05-15T22:41:46.378Z,52.50
2018-05-15T22:44:13.867Z,52.60
2018-05-15T22:46:42.148Z,52.60
2018-05-15T22:49:10.430Z,52.60
2018-05-15T22:51:37.935Z,52.50
2018-05-15T22:54:05.452Z,52.60
2018-05-15T22:56:33.918Z,52.60
2018-05-15T22:59:01.440Z,52.60
2018-05-15T23:01:28.950Z,52.50
2018-05-15T23:03:56.440Z,52.50
2018-05-15T23:06:23.987Z,52.50
2018-05-15T23:08:51.491Z,52.60
2018-05-15T23:11:20.706Z,52.60
2018-05-15T23:13:48.207Z,52.60
2018-05-15T23:16:15.723Z,52.60
2018-05-15T23:18:43.237Z,52.50
2018-05-15T23:21:12.702Z,52.60
2018-05-15T23:23:40.356Z,52.60
2018-05-15T23:26:07.864Z,52.50
2018-05-15T23:28:36.896Z,52.60
2018-05-15T23:31:04.401Z,53.20
2018-05-15T23:33:31.932Z,52.50
2018-05-15T23:35:59.430Z,52.50
2018-05-15T23:38:27.008Z,52.80
2018-05-15T23:40:55.283Z,52.60
2018-05-15T23:43:23.559Z,52.50
2018-05-15T23:45:51.847Z,52.50
2018-05-15T23:48:19.339Z,52.50
2018-05-15T23:50:46.851Z,52.50
2018-05-15T23:53:15.120Z,52.50
2018-05-15T23:55:44.183Z,52.50
2018-05-15T23:58:11.680Z,52.40
